London Heathrow Airport

Airport
ICAO code: 
EGLL
IATA Code: 
LHR
Summary
ICAO Region: 
EUR
Territory: 
Location: 
Hillingdon, London, England
Serving: 
London
Elevation: 
83 ft
Coordinates: 
Aerial View: 
51° 28' 13.234" N, 0° 27' 12.327" W
Airport BS: 
Bird Strike
Airport LOS: 
Parallel Runway Operation
Metar
Observation
EGLL 291950Z AUTO 24008KT 9999 OVC016 04/01 Q1015 NOSIG
Station
London / Heathrow Airport
Date/Time
2021-11-29 19:50:00
Wind direction
240°
Wind speed
08 kts
Lowest cloud amount
overcast
Temperature
4°C
Dew point
1°C
Humidity
80%
QNH
1015 hPa
Weather condition
n/a

Largest and busiest airport in the United Kingdom, which also handles more international passengers than any other airport in the world. It serves both the London region and a wide area of central and southern England and Wales as well as being a major European hub airport.

Climatology

Temperate Marine climate/Oceanic climate (Köppen climate classification Cfb). Moderately cool summer and comparatively warm winter with a temperature range of only 14°C. Prevailing south-westerly winds from the Atlantic Ocean.

Runways

Designator Length Width Surface Rops
09R/27L 3658 45 ASP Yes/Yes
09L/27R 3901 50 ASP Yes/Yes

SKYbrary Partners:

Safety knowledge contributed by: